createdAt,value
2023-02-22T00:00:42.934Z,4.32
2023-02-22T00:03:32.484Z,6.55
2023-02-22T00:06:02.642Z,3.17
2023-02-22T00:08:31.811Z,4.00
2023-02-22T00:13:29.300Z,3.55
2023-02-22T00:16:00.049Z,3.50
2023-02-22T00:18:30.564Z,3.75
2023-02-22T00:21:01.473Z,3.15
2023-02-22T00:23:30.069Z,3.83
2023-02-22T00:25:58.243Z,3.42
2023-02-22T00:28:25.362Z,3.60
2023-02-22T00:30:52.779Z,3.58
2023-02-22T00:33:19.726Z,3.83
2023-02-22T00:35:46.475Z,3.75
2023-02-22T00:38:15.138Z,6.18
2023-02-22T00:40:42.138Z,7.22
2023-02-22T00:43:08.966Z,5.38
2023-02-22T00:45:36.789Z,6.72
2023-02-22T00:48:05.043Z,7.35
2023-02-22T00:50:33.026Z,8.15
2023-02-22T00:53:01.082Z,6.15
2023-02-22T00:55:30.042Z,4.55
2023-02-22T00:57:57.395Z,5.65
2023-02-22T01:00:27.174Z,5.20
2023-02-22T01:02:54.445Z,4.40
2023-02-22T01:05:25.103Z,4.78
2023-02-22T01:07:51.769Z,4.68
2023-02-22T01:10:21.059Z,4.70
2023-02-22T01:12:48.550Z,4.88
2023-02-22T01:15:16.275Z,6.57
2023-02-22T01:17:43.927Z,6.05
2023-02-22T01:20:14.599Z,6.70
2023-02-22T01:22:47.012Z,6.78
2023-02-22T01:25:18.793Z,5.80
2023-02-22T01:27:45.614Z,5.68
2023-02-22T01:30:14.872Z,5.93
2023-02-22T01:32:42.581Z,6.18
2023-02-22T01:35:13.899Z,5.22
2023-02-22T01:37:40.988Z,8.57
2023-02-22T01:40:10.591Z,7.63
2023-02-22T01:42:37.303Z,5.85
2023-02-22T01:45:34.865Z,5.35
2023-02-22T01:48:08.784Z,4.82
2023-02-22T01:50:38.660Z,10.63
2023-02-22T01:53:05.700Z,8.95
2023-02-22T01:55:34.253Z,8.57
2023-02-22T01:58:01.789Z,7.57
2023-02-22T02:00:28.542Z,7.75
2023-02-22T02:03:00.205Z,7.40
2023-02-22T02:05:31.408Z,6.10
2023-02-22T02:07:58.807Z,7.75
2023-02-22T02:10:26.873Z,8.18
2023-02-22T02:12:53.603Z,6.80
2023-02-22T02:15:33.143Z,5.97
2023-02-22T02:18:06.938Z,6.78
2023-02-22T02:20:44.582Z,5.90
2023-02-22T02:23:32.817Z,5.85
2023-02-22T02:26:21.593Z,5.53
2023-02-22T02:29:03.329Z,5.70
2023-02-22T02:31:52.004Z,4.70
2023-02-22T02:34:26.203Z,5.35
2023-02-22T02:37:13.072Z,4.93
2023-02-22T02:39:57.411Z,4.75
2023-02-22T02:42:27.392Z,4.50
2023-02-22T02:45:11.963Z,4.30
2023-02-22T02:47:42.855Z,5.50
2023-02-22T02:50:31.288Z,4.90
2023-02-22T02:53:01.407Z,6.68
2023-02-22T02:55:29.836Z,6.53
2023-02-22T02:57:56.580Z,6.18
2023-02-22T03:00:28.262Z,4.97
2023-02-22T03:03:10.705Z,5.15
2023-02-22T03:05:59.633Z,6.10
2023-02-22T03:08:32.001Z,5.40
2023-02-22T03:11:20.157Z,4.75
2023-02-22T03:14:09.817Z,5.68
2023-02-22T03:16:46.343Z,5.32
2023-02-22T03:19:19.553Z,6.32
2023-02-22T03:22:04.033Z,5.60
2023-02-22T03:24:53.179Z,5.50
2023-02-22T03:27:32.504Z,5.18
2023-02-22T03:30:04.181Z,5.13
2023-02-22T03:32:36.141Z,4.95
2023-02-22T03:35:10.085Z,5.25
2023-02-22T03:37:44.055Z,4.70
2023-02-22T03:40:15.610Z,4.63
2023-02-22T03:42:54.657Z,5.25
2023-02-22T03:45:23.515Z,5.00
2023-02-22T03:47:53.319Z,4.85
2023-02-22T03:50:26.449Z,4.70
2023-02-22T03:52:53.505Z,4.40
2023-02-22T03:55:20.154Z,5.05
2023-02-22T03:57:52.509Z,5.05
2023-02-22T04:00:25.187Z,4.38
2023-02-22T04:02:52.235Z,5.50
2023-02-22T04:05:19.345Z,5.68
2023-02-22T04:07:46.199Z,6.18
2023-02-22T04:10:15.529Z,6.82
2023-02-22T04:12:42.208Z,5.28
2023-02-22T04:15:09.931Z,7.07
2023-02-22T04:17:36.668Z,6.25
2023-02-22T04:20:05.022Z,6.10
2023-02-22T04:22:31.732Z,5.95
2023-02-22T04:24:58.382Z,5.88
2023-02-22T04:27:25.036Z,5.53
2023-02-22T04:29:51.730Z,6.47
2023-02-22T04:32:18.497Z,9.93
2023-02-22T04:34:45.226Z,5.65
2023-02-22T04:37:12.402Z,6.20
2023-02-22T04:39:39.098Z,7.15
2023-02-22T04:42:05.837Z,13.43
2023-02-22T04:44:32.849Z,6.68
2023-02-22T04:46:59.513Z,6.28
2023-02-22T04:49:26.370Z,6.25
2023-02-22T04:51:53.118Z,6.28
2023-02-22T04:54:19.954Z,6.00
2023-02-22T04:56:46.684Z,6.47
2023-02-22T04:59:13.472Z,7.35
2023-02-22T05:01:40.284Z,6.50
2023-02-22T05:04:07.882Z,6.65
2023-02-22T05:06:34.586Z,5.50
2023-02-22T05:09:01.313Z,6.38
2023-02-22T05:11:28.077Z,10.57
2023-02-22T05:13:54.793Z,9.20
2023-02-22T05:16:21.650Z,8.57
2023-02-22T05:18:48.328Z,8.98
2023-02-22T05:21:15.132Z,9.50
2023-02-22T05:23:41.978Z,12.95
2023-02-22T05:26:10.734Z,12.68
2023-02-22T05:28:38.350Z,15.35
2023-02-22T05:31:05.281Z,12.20
2023-02-22T05:33:32.020Z,12.32
2023-02-22T05:35:58.718Z,33.58
2023-02-22T05:38:25.413Z,38.92
2023-02-22T05:40:52.217Z,14.20
2023-02-22T05:43:18.950Z,13.38
2023-02-22T05:45:45.722Z,17.05
2023-02-22T05:48:13.060Z,13.65
2023-02-22T05:50:40.703Z,16.48
2023-02-22T05:53:07.502Z,16.92
2023-02-22T05:55:34.254Z,20.00
2023-02-22T05:58:01.881Z,17.52
2023-02-22T06:00:30.541Z,19.63
2023-02-22T06:03:03.078Z,18.92
2023-02-22T06:05:30.301Z,25.67
2023-02-22T06:07:58.303Z,30.00
2023-02-22T06:10:25.702Z,35.67
2023-02-22T06:12:53.297Z,25.17
2023-02-22T06:15:21.376Z,19.13
2023-02-22T06:17:48.582Z,21.25
2023-02-22T06:20:17.936Z,19.58
2023-02-22T06:22:46.848Z,23.00
2023-02-22T06:25:15.317Z,22.30
2023-02-22T06:27:42.095Z,24.58
2023-02-22T06:30:12.292Z,25.65
2023-02-22T06:32:39.997Z,22.77
2023-02-22T06:35:07.261Z,23.48
2023-02-22T06:37:33.985Z,21.65
2023-02-22T06:40:04.949Z,23.60
2023-02-22T06:42:32.060Z,25.98
2023-02-22T06:44:58.822Z,21.52
2023-02-22T06:47:25.465Z,21.15
2023-02-22T06:49:56.114Z,17.98
2023-02-22T06:52:22.969Z,17.70
2023-02-22T06:54:50.133Z,19.00
2023-02-22T06:57:17.519Z,14.10
2023-02-22T06:59:44.351Z,13.73
2023-02-22T07:02:12.566Z,10.98
2023-02-22T07:04:41.043Z,10.70
2023-02-22T07:07:09.587Z,11.15
2023-02-22T07:09:36.320Z,10.38
2023-02-22T07:12:03.184Z,10.88
2023-02-22T07:14:29.897Z,12.48
2023-02-22T07:16:56.534Z,12.18
2023-02-22T07:19:23.728Z,11.15
2023-02-22T07:21:50.964Z,10.00
2023-02-22T07:24:17.634Z,12.00
2023-02-22T07:26:44.340Z,10.95
2023-02-22T07:29:11.394Z,10.60
2023-02-22T07:31:38.924Z,11.90
2023-02-22T07:34:05.848Z,8.52
2023-02-22T07:36:32.560Z,12.68
2023-02-22T07:38:59.274Z,8.27
2023-02-22T07:41:26.053Z,9.10
2023-02-22T07:43:52.704Z,9.40
2023-02-22T07:46:19.433Z,8.93
2023-02-22T07:48:46.099Z,8.40
2023-02-22T07:51:16.071Z,8.02
2023-02-22T07:53:43.020Z,8.57
2023-02-22T07:56:09.694Z,8.32
2023-02-22T07:58:36.390Z,9.88
2023-02-22T08:01:03.709Z,11.68
2023-02-22T08:03:34.468Z,11.20
2023-02-22T08:06:03.030Z,9.15
2023-02-22T08:08:29.777Z,9.02
2023-02-22T08:10:56.611Z,9.23
2023-02-22T08:13:23.939Z,10.32
2023-02-22T08:15:54.468Z,6.75
2023-02-22T08:18:22.222Z,7.18
2023-02-22T08:20:51.994Z,8.25
2023-02-22T08:23:20.141Z,7.85
2023-02-22T08:25:46.823Z,8.40
2023-02-22T08:28:16.148Z,8.43
2023-02-22T08:30:43.937Z,9.02
2023-02-22T08:33:16.782Z,8.20
2023-02-22T08:35:43.669Z,8.00
2023-02-22T08:38:34.940Z,6.75
2023-02-22T08:41:01.645Z,8.35
2023-02-22T08:43:28.683Z,7.60
2023-02-22T08:45:57.437Z,11.25
2023-02-22T08:48:24.676Z,6.80
2023-02-22T08:50:51.418Z,8.15
2023-02-22T08:53:18.096Z,6.65
2023-02-22T08:55:45.440Z,7.60
2023-02-22T08:58:12.932Z,7.85
2023-02-22T09:00:40.844Z,5.53
2023-02-22T09:03:10.311Z,5.85
2023-02-22T09:05:37.107Z,6.25
2023-02-22T09:08:04.680Z,5.90
2023-02-22T09:10:33.193Z,8.88
2023-02-22T09:13:01.290Z,17.38
2023-02-22T09:15:28.727Z,6.43
2023-02-22T09:17:56.049Z,5.30
2023-02-22T09:20:23.704Z,4.70
2023-02-22T09:22:50.671Z,5.47
2023-02-22T09:25:20.539Z,4.70
2023-02-22T09:27:52.111Z,5.53
2023-02-22T09:30:25.758Z,6.22
2023-02-22T09:32:54.364Z,5.18
2023-02-22T09:35:27.131Z,5.32
2023-02-22T09:37:55.610Z,5.30
2023-02-22T09:40:25.499Z,5.57
2023-02-22T09:43:21.536Z,8.10
2023-02-22T09:46:21.418Z,4.72
2023-02-22T09:49:02.385Z,4.75
2023-02-22T09:51:45.643Z,4.90
2023-02-22T09:54:22.088Z,6.07
2023-02-22T09:56:50.414Z,5.07
2023-02-22T09:59:23.412Z,5.30
2023-02-22T10:01:56.176Z,5.75
2023-02-22T10:04:24.584Z,7.95
2023-02-22T10:07:02.145Z,5.47
2023-02-22T10:09:30.437Z,5.13
2023-02-22T10:11:58.607Z,5.75
2023-02-22T10:14:38.576Z,5.07
2023-02-22T10:17:34.375Z,5.18
2023-02-22T10:20:06.376Z,4.95
2023-02-22T10:22:37.423Z,5.55
2023-02-22T10:25:12.992Z,5.47
2023-02-22T10:27:42.566Z,5.07
2023-02-22T10:30:25.695Z,5.50
2023-02-22T10:32:57.681Z,5.72
2023-02-22T10:35:29.940Z,4.90
2023-02-22T10:38:00.163Z,5.80
2023-02-22T10:40:32.638Z,5.78
2023-02-22T10:43:03.029Z,6.55
2023-02-22T10:45:32.798Z,5.40
2023-02-22T10:48:02.429Z,5.75
2023-02-22T10:50:30.996Z,7.38
2023-02-22T10:52:57.955Z,7.15
2023-02-22T10:55:24.621Z,6.45
2023-02-22T10:57:59.231Z,7.70
2023-02-22T11:00:39.761Z,6.50
2023-02-22T11:03:15.999Z,6.65
2023-02-22T11:05:42.997Z,7.32
2023-02-22T11:08:21.583Z,5.95
2023-02-22T11:10:49.891Z,7.57
2023-02-22T11:13:27.749Z,5.68
2023-02-22T11:15:56.125Z,5.90
2023-02-22T11:18:29.051Z,6.13
2023-02-22T11:21:03.352Z,5.88
2023-02-22T11:23:30.529Z,6.32
2023-02-22T11:26:19.109Z,5.63
2023-02-22T11:28:56.096Z,6.32
2023-02-22T11:31:30.366Z,6.32
2023-02-22T11:33:59.600Z,5.72
2023-02-22T11:36:33.925Z,5.97
2023-02-22T11:39:01.135Z,5.95
2023-02-22T11:41:30.128Z,5.30
2023-02-22T11:44:14.413Z,5.97
2023-02-22T11:46:42.016Z,4.50
2023-02-22T11:49:10.985Z,4.72
2023-02-22T11:51:59.250Z,4.45
2023-02-22T11:54:53.198Z,3.22
2023-02-22T11:57:26.089Z,3.08
2023-02-22T12:00:50.058Z,2.88
2023-02-22T12:03:34.926Z,2.10
2023-02-22T12:06:46.846Z,2.22
2023-02-22T12:09:43.455Z,1.95
2023-02-22T12:12:56.707Z,2.30
2023-02-22T12:15:32.406Z,1.70
2023-02-22T12:18:02.072Z,1.65
2023-02-22T12:20:39.946Z,2.03
2023-02-22T12:23:12.975Z,1.95
2023-02-22T12:25:44.287Z,4.10
2023-02-22T12:28:24.230Z,4.13
2023-02-22T12:31:25.341Z,2.47
2023-02-22T12:33:55.847Z,3.78
2023-02-22T12:36:25.476Z,3.10
2023-02-22T12:38:58.829Z,2.05
2023-02-22T12:41:38.466Z,1.98
2023-02-22T12:44:31.097Z,1.85
2023-02-22T12:47:00.119Z,1.70
2023-02-22T12:49:52.515Z,1.95
2023-02-22T12:52:27.053Z,2.10
2023-02-22T12:55:04.780Z,2.25
2023-02-22T12:57:44.964Z,2.60
2023-02-22T13:00:39.657Z,8.50
2023-02-22T13:03:39.429Z,2.20
2023-02-22T13:06:27.674Z,3.25
2023-02-22T13:09:35.852Z,2.05
2023-02-22T13:12:08.783Z,4.53
2023-02-22T13:14:41.483Z,2.78
2023-02-22T13:17:21.207Z,2.50
2023-02-22T13:19:55.910Z,1.98
2023-02-22T13:22:40.594Z,2.00
2023-02-22T13:25:19.592Z,2.03
2023-02-22T13:28:19.611Z,2.33
2023-02-22T13:33:30.414Z,1.80
2023-02-22T13:36:22.391Z,2.38
2023-02-22T13:39:19.757Z,2.00
2023-02-22T13:41:55.346Z,2.42
2023-02-22T13:44:48.348Z,1.80
2023-02-22T13:47:59.325Z,1.67
2023-02-22T13:50:33.922Z,2.05
2023-02-22T13:53:01.352Z,2.67
2023-02-22T13:55:32.717Z,2.55
2023-02-22T13:58:03.593Z,2.53
2023-02-22T14:00:41.466Z,2.13
2023-02-22T14:03:13.837Z,2.58
2023-02-22T14:05:44.635Z,2.45
2023-02-22T14:08:14.338Z,2.00
2023-02-22T14:10:43.822Z,2.03
2023-02-22T14:13:11.632Z,1.88
2023-02-22T14:16:16.790Z,2.15
2023-02-22T14:18:46.188Z,3.05
2023-02-22T14:21:20.862Z,2.83
2023-02-22T14:23:55.925Z,3.35
2023-02-22T14:26:34.057Z,3.38
2023-02-22T14:29:09.877Z,3.10
2023-02-22T14:31:58.950Z,2.92
2023-02-22T14:34:52.366Z,2.75
2023-02-22T14:37:27.525Z,2.90
2023-02-22T14:40:02.329Z,2.92
2023-02-22T14:42:35.067Z,2.15
2023-02-22T14:45:09.494Z,2.55
2023-02-22T14:47:44.241Z,2.42
2023-02-22T14:50:23.211Z,3.28
2023-02-22T14:53:14.298Z,3.95
2023-02-22T14:55:48.271Z,2.80
2023-02-22T14:58:26.279Z,3.78
2023-02-22T15:00:53.938Z,3.28
2023-02-22T15:03:37.295Z,4.63
2023-02-22T15:06:14.898Z,3.70
2023-02-22T15:08:48.839Z,3.50
2023-02-22T15:11:25.711Z,3.00
2023-02-22T15:13:54.250Z,3.00
2023-02-22T15:16:22.661Z,4.35
2023-02-22T15:18:54.503Z,5.85
2023-02-22T15:21:23.977Z,6.18
2023-02-22T15:23:56.626Z,3.60
2023-02-22T15:26:44.373Z,5.43
2023-02-22T15:29:23.077Z,7.97
2023-02-22T15:31:49.880Z,3.70
2023-02-22T15:34:18.847Z,3.70
2023-02-22T15:36:47.109Z,5.63
2023-02-22T15:39:33.236Z,3.90
2023-02-22T15:42:09.094Z,5.03
2023-02-22T15:44:38.497Z,5.35
2023-02-22T15:47:05.713Z,3.85
2023-02-22T15:49:37.751Z,4.40
2023-02-22T15:52:26.864Z,3.30
2023-02-22T15:54:53.656Z,5.38
2023-02-22T15:57:25.531Z,3.35
2023-02-22T15:59:54.865Z,3.35
2023-02-22T16:05:03.858Z,3.65
2023-02-22T16:07:30.981Z,4.60
2023-02-22T16:09:58.088Z,4.03
2023-02-22T16:12:27.769Z,4.60
2023-02-22T16:15:00.012Z,4.38
2023-02-22T16:17:31.483Z,6.82
2023-02-22T16:20:21.168Z,7.90
2023-02-22T16:22:49.638Z,4.90
2023-02-22T16:25:19.515Z,4.90
2023-02-22T16:27:52.973Z,4.05
2023-02-22T16:30:32.420Z,3.50
2023-02-22T16:33:00.851Z,3.97
2023-02-22T16:35:29.220Z,5.20
2023-02-22T16:38:01.068Z,3.38
2023-02-22T16:40:34.119Z,4.43
2023-02-22T16:43:08.520Z,3.83
2023-02-22T16:45:36.176Z,5.35
2023-02-22T16:48:13.559Z,5.28
2023-02-22T16:50:40.833Z,9.30
2023-02-22T16:53:07.509Z,7.28
2023-02-22T16:55:36.658Z,14.38
2023-02-22T16:58:04.223Z,9.30
2023-02-22T17:00:42.246Z,8.27
2023-02-22T17:03:17.650Z,6.43
2023-02-22T17:05:44.734Z,5.50
2023-02-22T17:08:11.478Z,7.35
2023-02-22T17:10:38.233Z,8.07
2023-02-22T17:13:21.590Z,6.35
2023-02-22T17:15:49.117Z,3.78
2023-02-22T17:18:22.546Z,9.73
2023-02-22T17:20:53.219Z,5.97
2023-02-22T17:23:20.992Z,7.50
2023-02-22T17:25:55.470Z,5.65
2023-02-22T17:28:24.565Z,4.97
2023-02-22T17:30:52.998Z,5.47
2023-02-22T17:33:22.975Z,4.70
2023-02-22T17:35:49.708Z,7.40
2023-02-22T17:38:19.602Z,6.00
2023-02-22T17:40:48.223Z,5.72
2023-02-22T17:43:15.631Z,7.07
2023-02-22T17:45:42.374Z,8.88
2023-02-22T17:48:09.508Z,3.67
2023-02-22T17:50:41.166Z,4.85
2023-02-22T17:53:10.926Z,6.68
2023-02-22T17:55:40.768Z,4.07
2023-02-22T17:58:14.540Z,6.82
2023-02-22T18:00:47.139Z,7.45
2023-02-22T18:03:16.477Z,7.05
2023-02-22T18:08:10.808Z,10.00
2023-02-22T18:10:37.458Z,6.72
2023-02-22T18:13:04.526Z,4.10
2023-02-22T18:15:35.597Z,10.25
2023-02-22T18:18:03.568Z,4.78
2023-02-22T18:20:38.430Z,10.45
2023-02-22T18:23:09.670Z,8.35
2023-02-22T18:25:37.037Z,6.60
2023-02-22T18:28:07.724Z,5.78
2023-02-22T18:30:38.309Z,5.25
2023-02-22T18:33:05.109Z,5.20
2023-02-22T18:35:31.792Z,5.95
2023-02-22T18:37:58.488Z,7.43
2023-02-22T18:40:25.184Z,4.82
2023-02-22T18:42:51.868Z,4.65
2023-02-22T18:45:19.412Z,5.13
2023-02-22T18:47:46.066Z,4.63
2023-02-22T18:50:13.638Z,4.35
2023-02-22T18:52:46.225Z,4.22
2023-02-22T18:55:18.097Z,3.63
2023-02-22T18:57:45.947Z,4.30
2023-02-22T19:00:18.130Z,4.07
2023-02-22T19:02:44.988Z,4.57
2023-02-22T19:05:13.107Z,5.28
2023-02-22T19:07:39.905Z,3.95
2023-02-22T19:10:07.193Z,3.55
2023-02-22T19:12:34.089Z,3.42
2023-02-22T19:15:01.141Z,3.80
2023-02-22T19:17:29.544Z,3.10
2023-02-22T19:19:56.323Z,4.55
2023-02-22T19:22:26.173Z,5.00
2023-02-22T19:24:56.460Z,4.10
2023-02-22T19:27:23.568Z,4.25
2023-02-22T19:29:50.379Z,3.72
2023-02-22T19:32:17.678Z,5.47
2023-02-22T19:34:44.747Z,4.63
2023-02-22T19:37:13.197Z,5.88
2023-02-22T19:39:42.371Z,10.18
2023-02-22T19:42:10.354Z,3.00
2023-02-22T19:44:37.858Z,5.43
2023-02-22T19:47:09.144Z,12.95
2023-02-22T19:49:37.392Z,7.80
2023-02-22T19:52:06.619Z,3.95
2023-02-22T19:54:33.574Z,3.55
2023-02-22T19:57:00.564Z,4.47
2023-02-22T19:59:27.484Z,3.40
2023-02-22T20:01:55.441Z,3.67
2023-02-22T20:04:22.991Z,4.05
2023-02-22T20:06:54.809Z,4.13
2023-02-22T20:09:24.380Z,3.80
2023-02-22T20:11:54.314Z,3.78
2023-02-22T20:14:26.182Z,4.32
2023-02-22T20:16:55.138Z,2.72
2023-02-22T20:19:26.716Z,4.47
2023-02-22T20:21:57.826Z,4.95
2023-02-22T20:24:24.743Z,3.55
2023-02-22T20:26:55.719Z,4.97
2023-02-22T20:29:29.485Z,4.22
2023-02-22T20:31:57.978Z,4.32
2023-02-22T20:34:26.067Z,5.13
2023-02-22T20:36:53.537Z,3.00
2023-02-22T20:39:20.341Z,4.22
2023-02-22T20:41:47.084Z,4.10
2023-02-22T20:44:15.868Z,4.45
2023-02-22T20:46:43.377Z,5.00
2023-02-22T20:49:13.539Z,4.35
2023-02-22T20:51:40.503Z,4.60
2023-02-22T20:54:08.576Z,5.85
2023-02-22T20:56:35.338Z,4.40
2023-02-22T20:59:04.647Z,4.63
2023-02-22T21:04:02.593Z,3.88
2023-02-22T21:06:30.126Z,4.10
2023-02-22T21:08:59.636Z,4.95
2023-02-22T21:11:28.640Z,4.53
2023-02-22T21:13:55.311Z,4.10
2023-02-22T21:16:27.846Z,3.55
2023-02-22T21:18:58.542Z,3.55
2023-02-22T21:21:26.265Z,4.28
2023-02-22T21:23:55.129Z,3.78
2023-02-22T21:26:24.638Z,3.53
2023-02-22T21:28:52.162Z,3.53
2023-02-22T21:31:22.244Z,2.95
2023-02-22T21:33:53.973Z,3.20
2023-02-22T21:36:25.426Z,3.63
2023-02-22T21:38:55.581Z,5.53
2023-02-22T21:41:27.407Z,4.70
2023-02-22T21:43:55.949Z,10.25
2023-02-22T21:46:23.683Z,5.78
2023-02-22T21:48:50.740Z,7.13
2023-02-22T21:51:23.610Z,14.70
2023-02-22T21:53:52.573Z,10.15
2023-02-22T21:56:24.381Z,8.10
2023-02-22T21:58:59.266Z,24.33
2023-02-22T22:01:31.049Z,26.92
2023-02-22T22:03:59.992Z,26.10
2023-02-22T22:06:28.117Z,28.10
2023-02-22T22:08:55.630Z,29.92
2023-02-22T22:11:22.792Z,30.45
2023-02-22T22:13:49.480Z,28.85
2023-02-22T22:16:19.213Z,31.60
2023-02-22T22:18:46.884Z,29.25
2023-02-22T22:21:17.594Z,28.67
2023-02-22T22:23:47.117Z,32.40
2023-02-22T22:26:20.006Z,60.65
2023-02-22T22:28:49.376Z,60.05
2023-02-22T22:31:17.843Z,54.30
2023-02-22T22:33:45.139Z,55.33
2023-02-22T22:36:13.725Z,48.15
2023-02-22T22:38:40.550Z,40.67
2023-02-22T22:41:09.203Z,33.88
2023-02-22T22:43:37.196Z,30.40
2023-02-22T22:46:05.866Z,17.67
2023-02-22T22:48:36.117Z,10.40
2023-02-22T22:51:11.426Z,9.63
2023-02-22T22:53:40.665Z,7.82
2023-02-22T22:56:14.307Z,9.13
2023-02-22T22:58:43.968Z,5.47
2023-02-22T23:01:18.111Z,5.60
2023-02-22T23:03:55.375Z,7.53
2023-02-22T23:06:37.673Z,6.60
2023-02-22T23:09:11.594Z,5.80
2023-02-22T23:11:50.953Z,5.13
2023-02-22T23:14:21.169Z,5.25
2023-02-22T23:16:48.691Z,4.65
2023-02-22T23:19:15.849Z,4.10
2023-02-22T23:21:46.040Z,4.30
2023-02-22T23:24:15.355Z,3.55
2023-02-22T23:29:09.887Z,3.50
2023-02-22T23:31:39.853Z,3.95
2023-02-22T23:34:11.204Z,4.85
2023-02-22T23:36:39.210Z,22.77
2023-02-22T23:39:06.857Z,22.70
2023-02-22T23:41:36.471Z,24.67
2023-02-22T23:44:08.410Z,24.98
2023-02-22T23:46:36.690Z,21.00
2023-02-22T23:49:05.346Z,18.38
2023-02-22T23:51:39.507Z,17.65
2023-02-22T23:54:12.567Z,19.30
2023-02-22T23:56:40.480Z,17.50
2023-02-22T23:59:12.589Z,17.63
